Time;durP1;ratioP1;P1;durP2;ratioP2;P2;SDS_P1;SDS_P2;PMS_P1;PMS_P2;Temp;Humidity;BMP_temperature;BMP_pressure;BME280_temperature;BME280_humidity;BME280_pressure;Samples;Min_cycle;Max_cycle;Signal;HPM_P1;HPM_P2
2024/01/10 00:00:15;;;;;;;54.72;23.95;;;3.00;92.50;;;;;;5107488;28;20499;-58
2024/01/10 00:02:40;;;;;;;58.28;23.60;;;3.10;92.60;;;;;;5107324;28;20020;-58
2024/01/10 00:05:06;;;;;;;52.03;23.23;;;3.00;92.50;;;;;;5089287;28;20024;-58
2024/01/10 00:07:32;;;;;;;64.32;24.25;;;3.00;92.50;;;;;;5107162;28;20042;-58
2024/01/10 00:09:59;;;;;;;60.25;24.58;;;3.00;92.50;;;;;;5106966;28;20492;-58
2024/01/10 00:12:25;;;;;;;56.53;23.85;;;3.00;92.50;;;;;;5107251;28;20031;-58
2024/01/10 00:14:51;;;;;;;52.90;23.73;;;3.10;92.50;;;;;;5106886;28;20540;-57
2024/01/10 00:17:16;;;;;;;57.13;25.60;;;3.00;92.50;;;;;;5107038;28;20023;-57
2024/01/10 00:19:42;;;;;;;54.47;22.63;;;3.00;92.50;;;;;;5106881;28;20040;-58
2024/01/10 00:22:07;;;;;;;55.10;23.90;;;3.00;92.50;;;;;;5107106;28;20027;-57
2024/01/10 00:24:33;;;;;;;54.78;23.75;;;3.00;92.50;;;;;;5107389;28;20032;-58
2024/01/10 00:26:59;;;;;;;56.92;23.45;;;3.00;92.50;;;;;;5089117;28;20429;-58
2024/01/10 00:29:24;;;;;;;43.15;22.55;;;3.00;92.50;;;;;;5106718;28;20054;-57
2024/01/10 00:31:52;;;;;;;56.20;22.90;;;3.00;92.50;;;;;;5107020;28;20023;-58
2024/01/10 00:34:18;;;;;;;52.03;23.55;;;3.00;92.50;;;;;;5106758;28;20052;-58
2024/01/10 00:36:43;;;;;;;45.97;22.40;;;3.00;92.50;;;;;;5106970;28;20024;-58
2024/01/10 00:39:09;;;;;;;54.17;22.58;;;3.00;92.50;;;;;;5106864;28;20487;-58
2024/01/10 00:41:34;;;;;;;53.80;24.00;;;2.90;92.40;;;;;;5106764;28;20036;-58
2024/01/10 00:44:00;;;;;;;58.15;22.73;;;2.90;92.40;;;;;;5088630;28;20038;-58
2024/01/10 00:46:27;;;;;;;47.00;22.80;;;2.90;92.50;;;;;;5088847;28;20048;-57
2024/01/10 00:48:52;;;;;;;50.80;22.23;;;2.90;92.50;;;;;;5106587;28;20108;-57
2024/01/10 00:51:18;;;;;;;53.40;22.52;;;2.90;92.50;;;;;;5088573;28;20028;-58
2024/01/10 00:53:44;;;;;;;45.05;23.35;;;2.90;92.50;;;;;;5106705;28;20024;-58
2024/01/10 00:56:09;;;;;;;52.13;22.65;;;2.90;92.50;;;;;;5106314;28;20055;-58
2024/01/10 00:58:35;;;;;;;50.58;20.83;;;2.90;92.50;;;;;;5106512;28;20088;-57
2024/01/10 01:01:01;;;;;;;46.97;21.45;;;3.00;92.50;;;;;;5106389;28;20040;-58
2024/01/10 01:03:26;;;;;;;54.00;22.58;;;2.90;92.50;;;;;;5106356;28;20032;-58
2024/01/10 01:05:52;;;;;;;47.55;22.73;;;2.90;92.50;;;;;;5088323;28;20029;-58
2024/01/10 01:08:17;;;;;;;56.50;21.52;;;2.90;92.40;;;;;;5106484;28;20097;-58
2024/01/10 01:10:43;;;;;;;45.47;21.65;;;2.90;92.40;;;;;;5106325;28;20035;-58
2024/01/10 01:13:09;;;;;;;46.33;21.17;;;2.90;92.50;;;;;;5106332;28;20034;-58
2024/01/10 01:15:34;;;;;;;45.88;21.70;;;2.90;92.50;;;;;;5090165;28;20054;-58
2024/01/10 01:18:00;;;;;;;42.50;21.13;;;2.90;92.50;;;;;;5110422;28;20031;-58
2024/01/10 01:20:25;;;;;;;44.60;22.38;;;2.90;92.50;;;;;;5109364;28;20031;-58
2024/01/10 01:22:52;;;;;;;42.78;23.00;;;2.90;92.40;;;;;;5110539;28;20061;-58
2024/01/10 01:25:18;;;;;;;46.35;22.40;;;2.80;92.40;;;;;;5092480;28;20051;-58
2024/01/10 01:27:43;;;;;;;44.90;21.48;;;2.80;92.40;;;;;;5110348;28;20020;-58
2024/01/10 01:30:11;;;;;;;47.95;21.40;;;2.90;92.50;;;;;;5110280;28;20437;-58
2024/01/10 01:32:37;;;;;;;41.15;21.30;;;2.90;92.50;;;;;;5110313;28;20016;-58
2024/01/10 01:35:03;;;;;;;46.60;21.02;;;2.80;92.40;;;;;;5110041;28;20038;-58
2024/01/10 01:37:29;;;;;;;40.38;20.85;;;2.80;92.40;;;;;;5110202;28;20024;-58
2024/01/10 01:39:54;;;;;;;43.08;21.52;;;2.80;92.40;;;;;;5110329;28;20035;-58
2024/01/10 01:42:20;;;;;;;48.90;21.33;;;2.80;92.40;;;;;;5093192;28;20028;-58
2024/01/10 01:44:45;;;;;;;48.50;20.65;;;2.80;92.40;;;;;;5110372;28;20039;-56
2024/01/10 01:47:11;;;;;;;36.67;21.00;;;2.80;92.40;;;;;;5110561;28;20025;-57
2024/01/10 01:49:37;;;;;;;40.45;20.98;;;2.80;92.70;;;;;;5110093;28;20537;-58
2024/01/10 01:52:02;;;;;;;38.72;21.55;;;2.80;92.40;;;;;;5091695;28;20024;-58
2024/01/10 01:54:28;;;;;;;41.78;20.25;;;2.80;92.40;;;;;;5091677;28;20035;-58
2024/01/10 01:56:54;;;;;;;41.75;20.90;;;2.80;92.40;;;;;;5091581;28;20020;-58
2024/01/10 01:59:19;;;;;;;39.97;20.88;;;2.90;92.40;;;;;;5108546;28;20095;-58
2024/01/10 02:01:45;;;;;;;38.30;21.08;;;2.80;92.40;;;;;;5111173;28;20029;-57
2024/01/10 02:04:11;;;;;;;37.33;20.48;;;2.80;92.40;;;;;;5109813;28;20032;-57
2024/01/10 02:06:37;;;;;;;42.30;21.05;;;2.80;92.40;;;;;;5109702;28;20028;-58
2024/01/10 02:09:03;;;;;;;40.30;20.88;;;2.80;92.40;;;;;;5091445;28;20032;-58
2024/01/10 02:11:29;;;;;;;35.80;20.48;;;2.80;92.40;;;;;;5091368;28;20032;-58
2024/01/10 02:13:54;;;;;;;42.10;21.42;;;2.80;92.40;;;;;;5091430;28;20514;-58
2024/01/10 02:16:22;;;;;;;39.95;21.55;;;2.80;92.40;;;;;;5109473;28;20120;-58
2024/01/10 02:18:49;;;;;;;38.85;21.08;;;2.80;92.40;;;;;;5109599;28;20040;-58
2024/01/10 02:21:14;;;;;;;41.70;21.40;;;2.80;92.30;;;;;;5109446;28;20054;-58
2024/01/10 02:23:40;;;;;;;33.45;19.80;;;2.80;92.40;;;;;;5109177;28;20091;-58
2024/01/10 02:26:06;;;;;;;34.42;21.33;;;2.80;92.40;;;;;;5108322;28;20032;-58
2024/01/10 02:28:32;;;;;;;39.13;21.38;;;2.70;92.40;;;;;;5090528;28;20024;-58
2024/01/10 02:30:57;;;;;;;35.55;20.55;;;2.70;92.30;;;;;;5109134;28;20388;-58
2024/01/10 02:33:23;;;;;;;41.20;20.88;;;2.70;92.30;;;;;;5091218;28;20027;-58
2024/01/10 02:35:48;;;;;;;38.63;20.67;;;2.80;92.40;;;;;;5108941;28;20040;-58
2024/01/10 02:38:14;;;;;;;38.80;20.70;;;2.70;92.40;;;;;;5109020;28;20028;-57
2024/01/10 02:40:40;;;;;;;31.40;19.98;;;2.70;92.40;;;;;;5108742;28;20024;-58
2024/01/10 02:43:07;;;;;;;37.15;20.45;;;2.70;92.40;;;;;;5109001;28;20472;-58
2024/01/10 02:45:33;;;;;;;33.63;20.48;;;2.70;92.30;;;;;;5109041;28;20047;-58
2024/01/10 02:47:59;;;;;;;35.33;21.30;;;2.70;92.30;;;;;;5108665;28;20027;-58
2024/01/10 02:50:24;;;;;;;39.35;21.38;;;2.70;92.30;;;;;;5108794;28;20069;-58
2024/01/10 02:52:50;;;;;;;33.55;20.40;;;2.70;92.30;;;;;;5108771;28;20028;-57
2024/01/10 02:55:16;;;;;;;38.60;20.52;;;2.70;92.40;;;;;;5108709;28;20035;-58
2024/01/10 02:57:41;;;;;;;36.42;20.42;;;2.70;92.40;;;;;;5090676;28;20051;-58
2024/01/10 03:00:08;;;;;;;42.03;21.20;;;2.70;92.40;;;;;;5108657;28;20028;-57
2024/01/10 03:02:33;;;;;;;37.45;21.40;;;2.70;92.40;;;;;;5108475;28;20069;-58
2024/01/10 03:04:59;;;;;;;34.65;20.23;;;2.70;92.30;;;;;;5109102;28;20036;-58
2024/01/10 03:07:24;;;;;;;36.08;19.73;;;2.70;92.40;;;;;;5090640;28;20034;-58
2024/01/10 03:09:50;;;;;;;28.75;20.00;;;2.70;92.40;;;;;;5108392;28;20452;-58
2024/01/10 03:12:16;;;;;;;32.95;19.58;;;2.70;92.40;;;;;;5108345;28;20032;-58
2024/01/10 03:14:41;;;;;;;33.33;20.75;;;2.70;92.40;;;;;;5108267;28;20473;-58
2024/01/10 03:17:07;;;;;;;34.22;19.50;;;2.70;92.40;;;;;;5090249;28;20024;-58
2024/01/10 03:19:33;;;;;;;36.28;20.38;;;2.60;92.60;;;;;;5108325;28;20032;-58
2024/01/10 03:21:58;;;;;;;35.22;19.30;;;2.70;92.40;;;;;;5108327;28;20491;-58
2024/01/10 03:24:26;;;;;;;35.60;21.30;;;2.60;92.30;;;;;;5108306;28;20049;-58
2024/01/10 03:26:52;;;;;;;35.67;20.58;;;2.60;92.30;;;;;;5108154;28;20034;-58
2024/01/10 03:29:18;;;;;;;42.80;20.80;;;2.70;92.40;;;;;;5108111;28;20524;-58
2024/01/10 03:31:43;;;;;;;34.35;20.80;;;2.70;92.40;;;;;;5107754;28;20558;-57
2024/01/10 03:34:09;;;;;;;28.55;19.27;;;2.70;92.40;;;;;;5089859;28;20035;-58
2024/01/10 03:36:35;;;;;;;33.33;18.92;;;2.60;92.40;;;;;;5090004;28;20028;-57
2024/01/10 03:39:00;;;;;;;35.65;21.10;;;2.60;92.40;;;;;;5089544;28;20554;-58
2024/01/10 03:41:26;;;;;;;33.70;20.98;;;2.60;92.40;;;;;;5107600;28;20089;-58
2024/01/10 03:43:51;;;;;;;28.58;19.02;;;2.60;92.40;;;;;;5107696;28;20039;-58
2024/01/10 03:46:17;;;;;;;38.53;21.13;;;2.60;92.30;;;;;;5107608;28;20080;-58
2024/01/10 03:48:49;;;;;;;35.10;20.35;;;2.60;92.40;;;;;;5107525;28;20028;-58
2024/01/10 03:51:18;;;;;;;32.88;20.35;;;2.60;92.30;;;;;;5107609;28;20088;-58
2024/01/10 03:53:44;;;;;;;31.73;20.27;;;2.60;92.40;;;;;;5107500;28;20024;-58
2024/01/10 03:56:10;;;;;;;29.65;18.33;;;2.60;92.40;;;;;;5107461;28;20031;-58
2024/01/10 03:58:35;;;;;;;33.92;19.83;;;2.60;92.40;;;;;;5089427;28;20028;-57
2024/01/10 04:01:05;;;;;;;35.10;19.77;;;2.60;92.40;;;;;;5107560;28;20028;-58
2024/01/10 04:03:31;;;;;;;30.05;19.17;;;2.60;92.40;;;;;;5107547;28;20036;-58
2024/01/10 04:05:56;;;;;;;31.77;20.40;;;2.60;92.40;;;;;;5107434;28;20536;-58
2024/01/10 04:08:22;;;;;;;35.50;20.00;;;2.60;92.40;;;;;;5107360;28;20028;-58
2024/01/10 04:10:48;;;;;;;39.33;20.70;;;2.60;92.40;;;;;;5107320;28;20046;-58
2024/01/10 04:13:13;;;;;;;31.15;20.40;;;2.60;92.40;;;;;;5107332;28;20028;-58
2024/01/10 04:15:39;;;;;;;27.98;19.38;;;2.60;92.40;;;;;;5088793;28;20028;-58
2024/01/10 04:18:04;;;;;;;35.13;19.17;;;2.60;92.40;;;;;;5107159;28;20028;-58
2024/01/10 04:20:30;;;;;;;29.75;19.55;;;2.60;92.40;;;;;;5106938;28;20046;-57
2024/01/10 04:22:56;;;;;;;28.50;18.85;;;2.50;92.40;;;;;;5107042;28;20051;-58
2024/01/10 04:25:22;;;;;;;35.47;21.17;;;2.60;92.50;;;;;;5106941;28;20033;-57
2024/01/10 04:27:50;;;;;;;28.73;19.83;;;2.60;92.50;;;;;;5088860;28;20043;-57
2024/01/10 04:30:15;;;;;;;30.75;19.90;;;2.70;92.50;;;;;;5107016;28;20032;-58
2024/01/10 04:32:41;;;;;;;31.63;18.80;;;2.50;92.40;;;;;;5107016;28;20099;-58
2024/01/10 04:35:07;;;;;;;35.15;20.88;;;2.60;92.50;;;;;;5106661;28;20373;-58
2024/01/10 04:37:32;;;;;;;28.33;19.23;;;2.60;92.50;;;;;;5106602;28;20020;-57
2024/01/10 04:39:58;;;;;;;30.55;20.10;;;2.50;92.50;;;;;;5088744;28;20047;-58
2024/01/10 04:42:23;;;;;;;28.13;18.95;;;2.50;92.50;;;;;;5088343;28;20103;-58
2024/01/10 04:44:49;;;;;;;31.13;20.98;;;2.50;92.50;;;;;;5106803;28;20100;-58
2024/01/10 04:47:15;;;;;;;29.65;20.77;;;2.60;92.50;;;;;;5088671;28;20038;-58
2024/01/10 04:49:41;;;;;;;29.38;20.17;;;2.60;92.50;;;;;;5105965;28;20024;-58
2024/01/10 04:52:06;;;;;;;31.95;20.52;;;2.60;92.50;;;;;;5106503;28;20067;-57
2024/01/10 04:54:32;;;;;;;31.33;20.63;;;2.50;92.50;;;;;;5106700;28;20032;-57
2024/01/10 04:56:58;;;;;;;31.50;19.50;;;2.50;92.50;;;;;;5106570;28;20031;-58
2024/01/10 04:59:23;;;;;;;28.83;19.92;;;2.50;92.50;;;;;;5106575;28;20074;-50
2024/01/10 05:01:49;;;;;;;30.73;19.90;;;2.50;92.50;;;;;;5106554;28;20100;-50
2024/01/10 05:04:14;;;;;;;34.55;20.92;;;2.60;92.50;;;;;;5106643;28;20118;-51
2024/01/10 05:06:41;;;;;;;29.70;18.85;;;2.60;92.50;;;;;;5088841;28;20055;-49
2024/01/10 05:09:06;;;;;;;27.98;19.40;;;2.70;92.60;;;;;;5106989;28;20043;-50
2024/01/10 05:11:32;;;;;;;33.25;20.48;;;2.50;92.50;;;;;;5106331;28;20028;-50
2024/01/10 05:13:57;;;;;;;29.05;19.00;;;2.50;92.80;;;;;;5106414;28;20036;-50
2024/01/10 05:16:23;;;;;;;31.95;19.30;;;2.50;92.50;;;;;;5088374;28;20020;-50
2024/01/10 05:18:48;;;;;;;32.47;19.55;;;2.50;92.50;;;;;;5088240;28;20025;-51
2024/01/10 05:21:14;;;;;;;33.03;20.80;;;2.50;92.50;;;;;;5087895;28;20039;-50
2024/01/10 05:23:40;;;;;;;32.42;20.45;;;2.60;92.50;;;;;;5106251;28;20063;-50
2024/01/10 05:26:06;;;;;;;30.05;19.17;;;2.50;92.50;;;;;;5088161;28;20028;-50
2024/01/10 05:28:31;;;;;;;31.05;20.00;;;2.50;92.50;;;;;;5106104;28;20028;-50
2024/01/10 05:30:58;;;;;;;31.52;19.58;;;2.50;92.50;;;;;;5105428;28;20043;-50
2024/01/10 05:33:23;;;;;;;30.40;19.73;;;2.50;92.50;;;;;;5105210;28;20080;-50
2024/01/10 05:35:49;;;;;;;34.70;20.25;;;2.50;92.50;;;;;;5104845;28;20062;-50
2024/01/10 05:38:14;;;;;;;33.13;20.25;;;2.50;92.50;;;;;;5106071;28;20116;-50
2024/01/10 05:40:40;;;;;;;37.40;20.73;;;2.60;92.50;;;;;;5106066;28;20038;-50
2024/01/10 05:43:06;;;;;;;34.15;19.95;;;2.60;92.60;;;;;;5106097;28;20028;-50
2024/01/10 05:45:32;;;;;;;32.70;20.40;;;2.60;92.50;;;;;;5106110;28;20495;-50
2024/01/10 05:47:58;;;;;;;35.67;21.38;;;2.50;92.50;;;;;;5091197;28;20028;-50
2024/01/10 05:50:23;;;;;;;37.78;21.65;;;2.50;92.60;;;;;;5084092;28;20445;-50
2024/01/10 05:52:49;;;;;;;48.35;21.98;;;2.60;92.60;;;;;;5083421;28;20054;-50
2024/01/10 05:55:14;;;;;;;41.63;21.27;;;2.60;92.70;;;;;;5083890;28;20028;-50
2024/01/10 05:57:40;;;;;;;47.78;22.77;;;2.60;92.70;;;;;;5092072;28;20050;-50
2024/01/10 06:00:12;;;;;;;49.47;22.73;;;2.60;92.70;;;;;;5105769;28;20036;-50
2024/01/10 06:02:39;;;;;;;54.10;22.83;;;2.60;92.70;;;;;;5108925;28;20024;-50
2024/01/10 06:05:11;;;;;;;44.95;22.08;;;2.60;92.70;;;;;;5104666;28;20040;-50
2024/01/10 06:07:37;;;;;;;59.75;21.67;;;2.60;92.90;;;;;;5088985;28;20029;-51
2024/01/10 06:10:03;;;;;;;52.30;23.23;;;2.60;92.80;;;;;;5088996;28;20028;-51
2024/01/10 06:12:28;;;;;;;58.33;23.52;;;2.60;92.90;;;;;;5089156;28;20017;-51
2024/01/10 06:14:54;;;;;;;74.00;25.92;;;2.60;92.90;;;;;;5088276;28;20021;-50
2024/01/10 06:17:20;;;;;;;71.20;23.45;;;2.70;93.00;;;;;;5104751;28;20020;-50
2024/01/10 06:19:45;;;;;;;66.43;24.15;;;2.70;93.00;;;;;;5088746;28;20028;-50
2024/01/10 06:22:11;;;;;;;120.82;26.88;;;2.60;92.90;;;;;;5088518;28;20020;-51
2024/01/10 06:24:37;;;;;;;95.13;27.73;;;2.60;93.10;;;;;;5097846;28;20016;-50
2024/01/10 06:27:04;;;;;;;104.75;27.95;;;2.60;93.10;;;;;;5108748;28;20040;-50
2024/01/10 06:29:30;;;;;;;88.72;27.67;;;2.70;93.20;;;;;;5105921;28;20012;-51
2024/01/10 06:31:57;;;;;;;110.25;27.13;;;2.70;93.30;;;;;;5109044;28;20039;-50
2024/01/10 06:34:22;;;;;;;127.13;28.38;;;2.70;93.30;;;;;;5107409;28;20054;-51
2024/01/10 06:36:48;;;;;;;143.95;31.52;;;2.70;93.30;;;;;;5084232;28;20056;-50
2024/01/10 06:39:19;;;;;;;182.55;35.00;;;2.70;93.40;;;;;;5109134;28;20017;-50
2024/01/10 06:41:46;;;;;;;146.68;31.98;;;2.70;93.50;;;;;;5109324;28;20028;-51
2024/01/10 06:44:11;;;;;;;103.72;29.83;;;2.70;93.50;;;;;;5124132;28;20020;-50
2024/01/10 06:46:37;;;;;;;153.18;33.80;;;2.70;93.50;;;;;;5106767;28;20058;-50
2024/01/10 06:49:03;;;;;;;137.77;33.42;;;2.70;93.60;;;;;;5090951;28;20036;-50
2024/01/10 06:51:28;;;;;;;152.50;33.45;;;2.70;93.70;;;;;;5108678;28;20125;-50
2024/01/10 06:54:00;;;;;;;137.60;32.47;;;2.70;93.70;;;;;;5108054;28;20016;-50
2024/01/10 06:56:26;;;;;;;128.68;33.03;;;2.80;93.60;;;;;;5106039;28;20499;-51
2024/01/10 06:58:51;;;;;;;100.97;29.35;;;2.70;93.50;;;;;;5110526;28;20023;-50
2024/01/10 07:01:17;;;;;;;89.72;29.95;;;2.70;93.50;;;;;;5117987;28;20035;-50
2024/01/10 07:03:44;;;;;;;139.82;31.30;;;2.80;93.40;;;;;;5128531;28;20490;-50
2024/01/10 07:06:14;;;;;;;88.28;29.73;;;2.80;93.40;;;;;;5093702;28;20043;-50
2024/01/10 07:08:40;;;;;;;100.68;30.00;;;2.70;93.40;;;;;;5106988;28;20111;-51
2024/01/10 07:11:06;;;;;;;91.90;30.20;;;2.70;93.40;;;;;;5106773;28;20032;-50
2024/01/10 07:13:31;;;;;;;93.75;28.67;;;2.70;93.50;;;;;;5103469;28;20040;-51
2024/01/10 07:15:57;;;;;;;89.45;29.80;;;2.70;93.50;;;;;;5089800;28;20052;-50
2024/01/10 07:18:22;;;;;;;90.43;29.10;;;2.70;93.50;;;;;;5098217;28;20031;-50
2024/01/10 07:20:48;;;;;;;98.13;28.70;;;2.70;93.40;;;;;;5108724;28;20056;-50
2024/01/10 07:23:14;;;;;;;80.97;26.60;;;2.70;93.40;;;;;;5107952;28;20039;-50
2024/01/10 07:25:39;;;;;;;83.47;28.13;;;2.70;93.40;;;;;;5104934;28;20032;-50
2024/01/10 07:28:05;;;;;;;78.05;28.02;;;2.70;93.40;;;;;;5102495;28;20039;-51
2024/01/10 07:30:32;;;;;;;75.38;27.38;;;2.70;93.30;;;;;;5101915;28;20060;-50
2024/01/10 07:32:58;;;;;;;78.82;26.42;;;2.70;93.30;;;;;;5123637;28;20020;-50
2024/01/10 07:35:24;;;;;;;72.07;27.50;;;2.70;93.30;;;;;;5091040;28;20448;-51
2024/01/10 07:37:49;;;;;;;72.85;26.65;;;2.70;93.30;;;;;;5090225;28;20403;-50
2024/01/10 07:40:15;;;;;;;77.00;25.20;;;2.70;93.30;;;;;;5107171;28;20044;-50
2024/01/10 07:42:42;;;;;;;64.03;26.05;;;2.80;93.30;;;;;;5106601;28;20024;-50
2024/01/10 07:45:08;;;;;;;76.57;26.45;;;2.70;93.20;;;;;;5107686;28;20171;-50
2024/01/10 07:47:37;;;;;;;75.18;25.88;;;2.70;93.20;;;;;;5107509;28;20027;-50
2024/01/10 07:50:07;;;;;;;70.55;26.42;;;2.70;93.20;;;;;;5106819;28;20036;-50
2024/01/10 07:52:33;;;;;;;74.65;26.60;;;2.70;93.20;;;;;;5107373;28;20017;-50
2024/01/10 07:54:58;;;;;;;62.85;26.38;;;2.70;93.30;;;;;;5118976;28;20031;-50
2024/01/10 07:57:24;;;;;;;53.92;24.65;;;2.70;93.30;;;;;;5120803;28;20012;-50
2024/01/10 07:59:49;;;;;;;59.60;26.33;;;2.70;93.30;;;;;;5107495;28;20020;-51
2024/01/10 08:02:16;;;;;;;51.15;24.13;;;2.70;93.20;;;;;;5107457;28;20032;-50
2024/01/10 08:04:42;;;;;;;65.88;25.65;;;2.70;93.20;;;;;;5115538;28;20399;-50
2024/01/10 08:07:08;;;;;;;56.60;24.52;;;2.70;93.20;;;;;;5107541;28;20087;-51
2024/01/10 08:09:33;;;;;;;56.25;25.70;;;2.70;93.20;;;;;;5107714;28;20080;-51
2024/01/10 08:11:59;;;;;;;55.00;25.08;;;2.70;93.20;;;;;;5120556;28;20043;-50
2024/01/10 08:14:24;;;;;;;60.40;26.05;;;2.70;93.20;;;;;;5110403;28;20080;-51
2024/01/10 08:16:53;;;;;;;59.50;24.83;;;2.70;93.20;;;;;;5125368;28;20028;-50
2024/01/10 08:19:18;;;;;;;53.83;25.85;;;2.70;93.20;;;;;;5115437;28;20029;-50
2024/01/10 08:21:44;;;;;;;43.88;24.63;;;2.70;93.20;;;;;;5115222;28;20086;-50
2024/01/10 08:24:09;;;;;;;47.53;24.25;;;2.70;93.20;;;;;;5114028;28;20057;-50
2024/01/10 08:26:35;;;;;;;45.65;24.00;;;2.70;93.20;;;;;;5114241;28;20032;-50
2024/01/10 08:29:01;;;;;;;45.80;24.55;;;2.70;93.10;;;;;;5117729;28;20468;-51
2024/01/10 08:31:26;;;;;;;54.92;24.35;;;2.70;93.10;;;;;;5118941;28;20060;-50
2024/01/10 08:33:52;;;;;;;52.33;25.02;;;2.70;93.20;;;;;;5110533;28;20021;-50
2024/01/10 08:36:18;;;;;;;45.00;24.70;;;2.70;93.10;;;;;;5118345;28;20047;-51
2024/01/10 08:38:43;;;;;;;53.80;25.63;;;2.70;93.10;;;;;;5111632;28;20020;-50
2024/01/10 08:41:11;;;;;;;62.92;25.83;;;2.70;93.20;;;;;;5116043;28;20044;-50
2024/01/10 08:43:37;;;;;;;56.42;24.75;;;2.70;93.30;;;;;;5121191;27;20032;-50
2024/01/10 08:46:03;;;;;;;47.28;24.88;;;2.70;93.30;;;;;;5094698;28;20054;-51
2024/01/10 08:48:28;;;;;;;49.47;25.25;;;2.70;93.20;;;;;;5083605;28;20028;-50
2024/01/10 08:50:56;;;;;;;45.95;23.90;;;2.70;93.20;;;;;;5107217;28;20154;-50
2024/01/10 08:53:22;;;;;;;57.80;25.85;;;2.70;93.20;;;;;;5089347;28;20027;-50
2024/01/10 08:55:48;;;;;;;49.42;25.23;;;2.80;93.20;;;;;;5112733;28;20028;-50
2024/01/10 08:58:13;;;;;;;58.38;25.45;;;2.80;93.20;;;;;;5103512;28;20036;-50
2024/01/10 09:00:39;;;;;;;61.80;26.17;;;2.80;93.20;;;;;;5100254;28;20047;-50
2024/01/10 09:03:04;;;;;;;63.55;26.35;;;2.80;93.20;;;;;;5102106;28;20035;-50
2024/01/10 09:05:30;;;;;;;64.57;26.27;;;2.80;93.20;;;;;;5100285;28;20484;-50
2024/01/10 09:07:56;;;;;;;61.78;26.70;;;2.80;93.20;;;;;;5101766;28;20479;-50
2024/01/10 09:10:22;;;;;;;60.75;26.33;;;2.80;93.20;;;;;;5100688;28;20040;-50
2024/01/10 09:12:48;;;;;;;60.08;25.70;;;2.80;93.20;;;;;;5112484;28;20062;-50
2024/01/10 09:15:14;;;;;;;55.35;26.25;;;2.80;93.20;;;;;;5107361;28;20020;-50
2024/01/10 09:17:43;;;;;;;53.75;25.38;;;2.80;93.20;;;;;;5084626;28;20043;-50
2024/01/10 09:20:09;;;;;;;56.30;24.95;;;2.90;93.30;;;;;;5101565;28;20032;-50
2024/01/10 09:22:35;;;;;;;58.17;26.42;;;2.90;93.20;;;;;;5102732;28;20117;-50
2024/01/10 09:25:05;;;;;;;60.97;26.55;;;2.80;93.20;;;;;;5102664;28;20380;-50
2024/01/10 09:27:34;;;;;;;92.00;28.02;;;2.90;93.20;;;;;;5103897;28;20438;-50
2024/01/10 09:30:03;;;;;;;73.35;27.20;;;2.90;93.20;;;;;;5105273;28;20032;-50
2024/01/10 09:32:29;;;;;;;55.88;26.67;;;2.90;93.20;;;;;;5105005;28;20036;-50
2024/01/10 09:34:55;;;;;;;79.97;26.95;;;2.90;93.20;;;;;;5104406;28;20040;-51
2024/01/10 09:37:21;;;;;;;70.00;26.83;;;2.90;93.20;;;;;;5090002;28;20021;-51
2024/01/10 09:39:47;;;;;;;70.55;28.42;;;2.90;93.20;;;;;;5104086;28;20049;-51
2024/01/10 09:42:14;;;;;;;72.28;27.40;;;2.90;93.20;;;;;;5089962;28;20505;-51
2024/01/10 09:44:40;;;;;;;55.80;26.15;;;2.90;93.20;;;;;;5102394;28;20040;-51
2024/01/10 09:47:06;;;;;;;59.83;26.90;;;2.90;93.30;;;;;;5087514;28;20024;-51
2024/01/10 09:49:33;;;;;;;63.22;26.17;;;3.00;93.40;;;;;;5097980;28;20031;-51
2024/01/10 09:52:00;;;;;;;56.63;26.35;;;3.00;93.30;;;;;;5086611;28;20032;-51
2024/01/10 09:54:26;;;;;;;76.40;28.67;;;3.00;93.40;;;;;;5106873;28;20480;-51
2024/01/10 09:56:53;;;;;;;68.53;26.42;;;3.00;93.50;;;;;;5108479;28;20071;-51
2024/01/10 09:59:18;;;;;;;56.40;28.35;;;3.00;93.50;;;;;;5124989;28;20016;-51
2024/01/10 10:01:44;;;;;;;62.20;25.40;;;3.00;93.60;;;;;;5090613;28;20168;-51
2024/01/10 10:04:11;;;;;;;102.32;30.30;;;3.00;93.60;;;;;;5107300;28;20451;-52
2024/01/10 10:06:36;;;;;;;92.22;30.75;;;3.00;93.60;;;;;;5108564;28;20024;-52
2024/01/10 10:09:02;;;;;;;79.65;29.40;;;3.10;93.80;;;;;;5121678;27;20024;-51
2024/01/10 10:11:28;;;;;;;74.07;28.38;;;3.00;93.80;;;;;;5100558;28;20032;-52
2024/01/10 10:13:53;;;;;;;80.78;29.83;;;3.10;93.80;;;;;;5104950;28;20049;-51
2024/01/10 10:16:28;;;;;;;78.95;28.42;;;3.10;93.90;;;;;;5105301;28;20029;-52
2024/01/10 10:18:57;;;;;;;90.18;29.20;;;3.10;93.90;;;;;;5100111;28;20020;-51
2024/01/10 10:21:27;;;;;;;83.75;27.63;;;3.10;93.90;;;;;;5112438;28;20028;-51
2024/01/10 10:23:59;;;;;;;72.72;26.50;;;3.10;93.90;;;;;;5129709;27;20139;-51
2024/01/10 10:26:26;;;;;;;65.15;27.35;;;3.20;93.90;;;;;;5103384;28;20032;-51
2024/01/10 10:28:54;;;;;;;68.28;28.98;;;3.20;93.90;;;;;;5111730;28;20082;-51
2024/01/10 10:31:19;;;;;;;75.00;28.33;;;3.20;93.90;;;;;;5105132;28;20034;-51
2024/01/10 10:33:46;;;;;;;86.15;29.23;;;3.20;93.90;;;;;;5118014;28;20028;-51
2024/01/10 10:36:13;;;;;;;83.60;29.33;;;3.20;94.00;;;;;;5102497;28;20032;-52
2024/01/10 10:38:39;;;;;;;66.25;27.00;;;3.30;94.00;;;;;;5099149;28;20044;-51
2024/01/10 10:41:07;;;;;;;129.93;33.03;;;3.30;93.90;;;;;;5115084;27;20035;-51
2024/01/10 10:43:35;;;;;;;113.78;32.70;;;3.30;93.90;;;;;;5105952;28;20035;-51
2024/01/10 10:46:01;;;;;;;93.65;31.13;;;3.40;93.90;;;;;;5097093;28;20127;-52
2024/01/10 10:48:27;;;;;;;88.70;29.38;;;3.30;93.90;;;;;;5097066;28;20472;-51
2024/01/10 10:51:12;;;;;;;73.90;29.27;;;3.30;94.00;;;;;;5078485;28;20062;-51
2024/01/10 10:53:40;;;;;;;86.13;31.43;;;3.30;93.90;;;;;;5124103;28;20023;-52
2024/01/10 10:56:07;;;;;;;96.75;31.63;;;3.30;94.00;;;;;;5097284;28;20115;-51
2024/01/10 10:58:35;;;;;;;81.57;29.85;;;3.40;94.00;;;;;;5102276;28;20087;-51
2024/01/10 11:01:01;;;;;;;82.03;31.17;;;3.40;94.00;;;;;;5097425;28;20028;-52
2024/01/10 11:03:27;;;;;;;92.40;31.20;;;3.40;94.00;;;;;;5100462;28;20031;-51
2024/01/10 11:05:53;;;;;;;72.85;30.70;;;3.40;94.10;;;;;;5087160;28;20029;-51
2024/01/10 11:08:19;;;;;;;96.43;31.80;;;3.30;94.10;;;;;;5110750;28;20023;-51
2024/01/10 11:10:45;;;;;;;67.70;28.48;;;3.40;94.10;;;;;;5067810;28;20505;-51
2024/01/10 11:13:18;;;;;;;71.85;28.77;;;3.40;94.20;;;;;;5097752;28;20059;-51
2024/01/10 11:16:03;;;;;;;79.80;31.17;;;3.40;94.20;;;;;;5086861;28;20090;-51
2024/01/10 11:18:55;;;;;;;77.70;28.80;;;3.40;94.30;;;;;;5106373;28;20049;-51
2024/01/10 11:21:40;;;;;;;117.10;33.55;;;3.40;94.40;;;;;;5083401;28;20047;-51
2024/01/10 11:24:06;;;;;;;101.18;33.17;;;3.40;94.50;;;;;;5106983;28;20036;-50
2024/01/10 11:26:33;;;;;;;97.18;33.15;;;3.40;94.50;;;;;;5104726;28;20020;-51
2024/01/10 11:29:00;;;;;;;111.93;32.08;;;3.40;94.60;;;;;;5107104;28;20066;-51
2024/01/10 11:31:29;;;;;;;89.10;33.05;;;3.40;94.60;;;;;;5105770;28;20039;-51
2024/01/10 11:33:56;;;;;;;112.82;31.77;;;3.50;94.60;;;;;;5107312;28;20036;-50
2024/01/10 11:36:24;;;;;;;87.35;30.92;;;3.40;94.60;;;;;;5085312;28;20040;-50
2024/01/10 11:38:54;;;;;;;88.95;31.75;;;3.50;94.70;;;;;;5107192;28;20024;-50
2024/01/10 11:41:36;;;;;;;85.00;30.80;;;3.50;94.70;;;;;;5124780;27;20035;-50
2024/01/10 11:44:17;;;;;;;82.70;31.27;;;3.50;94.90;;;;;;5105457;28;20479;-50
2024/01/10 11:46:43;;;;;;;89.65;31.40;;;3.50;94.80;;;;;;5106714;28;20480;-50
2024/01/10 11:49:09;;;;;;;88.60;32.25;;;3.50;94.80;;;;;;5087667;28;20498;-51
2024/01/10 11:51:38;;;;;;;79.70;31.23;;;3.50;94.90;;;;;;5106064;28;20063;-50
2024/01/10 11:54:04;;;;;;;92.03;31.70;;;3.50;94.90;;;;;;5106641;28;20041;-50
2024/01/10 11:56:42;;;;;;;286.38;48.33;;;3.50;95.00;;;;;;5087501;28;20126;-50
2024/01/10 11:59:12;;;;;;;107.05;35.05;;;3.50;95.00;;;;;;5106492;28;20436;-50
2024/01/10 12:01:38;;;;;;;200.00;44.25;;;3.50;95.10;;;;;;5106567;28;20031;-50
2024/01/10 12:04:04;;;;;;;148.55;35.80;;;3.50;95.10;;;;;;5105615;28;20028;-50
2024/01/10 12:06:31;;;;;;;117.22;35.58;;;3.60;95.20;;;;;;5122482;28;20036;-58
2024/01/10 12:08:56;;;;;;;82.70;34.00;;;3.60;95.20;;;;;;5105214;28;20039;-58
2024/01/10 12:11:22;;;;;;;86.65;32.17;;;3.60;95.20;;;;;;5101314;28;20052;-58
2024/01/10 12:13:48;;;;;;;90.93;31.23;;;3.60;95.10;;;;;;5092134;28;20031;-58
2024/01/10 12:16:13;;;;;;;95.78;33.10;;;3.60;95.10;;;;;;5104136;28;20028;-58
2024/01/10 12:18:43;;;;;;;100.78;33.03;;;3.60;95.10;;;;;;5091901;28;20028;-58
2024/01/10 12:21:08;;;;;;;103.03;34.70;;;3.70;95.20;;;;;;5101175;28;20032;-58
2024/01/10 12:23:35;;;;;;;104.85;35.28;;;3.60;95.20;;;;;;5090927;28;20031;-58
2024/01/10 12:26:07;;;;;;;105.85;34.38;;;3.60;95.20;;;;;;5103435;28;20043;-58
2024/01/10 12:28:33;;;;;;;109.55;34.10;;;3.60;95.30;;;;;;5101477;28;20390;-58
2024/01/10 12:31:02;;;;;;;200.98;41.35;;;3.60;95.40;;;;;;5092351;28;20049;-59